Flight Track Log - Related Links

Times and Time Zones

All times are in EDT time to prevent confusion due to time zone crossing. See the SWA1903 flight status page for this flight to view local times or setup timezone preferences in your user account.

Time Position Orientation Groundspeed Altitude Reporting Facility
EDT Latitude Longitude Course Direction KTS MPH feet Rate Location/Type
Tue 07:54:09 AM 39.1833 -76.7500 322° Northwest 204 235 2,800  Level Potomac TRACON
Tue 07:55:15 AM 39.2000 -76.8333 284° West 230 265 6,200 2,857 Climbing Potomac TRACON
Tue 07:56:15 AM 39.2167 -76.9333 282° West 274 315 8,800 2,447 Climbing Potomac TRACON
Tue 07:57:47 AM 39.2503 -77.0792 287° West 303 349 12,400 2,724 Climbing Washington Center
Tue 07:58:47 AM 39.2967 -77.1928 298° West 322 371 15,700 3,076 Climbing Washington Center
Tue 07:59:00 AM 39.3602 -77.2935 322° Northwest  Level FlightAware Approximate
Tue 07:59:46 AM 39.3450 -77.3117 298° West 357 411 18,500  Level Washington Center
Tue 08:00:46 AM 39.3953 -77.4367 298° West 378 435 21,100 2,678 Climbing Washington Center
Tue 08:01:47 AM 39.4514 -77.5803 297° West 405 466 23,900 2,410 Climbing Washington Center
Tue 08:02:48 AM 39.4947 -77.7242 291° West 417 480 26,000 2,088 Climbing Washington Center
Tue 08:04:48 AM 39.5903 -78.0267 292° West 452 520 30,200 2,033 Climbing Cleveland Center
Tue 08:05:48 AM 39.6331 -78.1706 291° West 447 514 32,100 1,900 Climbing Cleveland Center
Tue 08:06:48 AM 39.6756 -78.3175 291° West 447 514 34,000 950 Climbing Cleveland Center
Tue 08:07:48 AM 39.7203 -78.4644 292° West 442 509 34,000  Level Cleveland Center
Tue 08:08:48 AM 39.7728 -78.6058 296° West 442 509 34,000  Level Cleveland Center
Tue 08:09:48 AM 39.8228 -78.7261 298° West 436 502 34,000  Level Cleveland Center
Tue 08:10:48 AM 39.8853 -78.8569 302° West 426 490 34,000  Level Cleveland Center
Tue 08:11:48 AM 39.9497 -78.9881 303° West 426 490 34,000  Level Cleveland Center
Tue 08:12:48 AM 40.0119 -79.1194 302° West 431 496 34,000  Level Cleveland Center
Tue 08:13:48 AM 40.0678 -79.2511 299° West 425 489 34,000  Level Cleveland Center
Tue 08:14:48 AM 40.1317 -79.3800 303° West 425 489 34,000  Level Cleveland Center
Tue 08:15:48 AM 40.1914 -79.5069 302° West 420 483 34,000  Level Cleveland Center
Tue 08:16:48 AM 40.2486 -79.6311 301° West 420 483 34,000  Level Cleveland Center
Tue 08:17:48 AM 40.3061 -79.7583 301° West 420 483 34,000  Level Cleveland Center
Tue 08:18:48 AM 40.3631 -79.8856 300° West 415 478 34,000  Level Cleveland Center
Tue 08:19:48 AM 40.4181 -80.0131 300° West 405 466 34,000  Level Cleveland Center
Tue 08:20:48 AM 40.4728 -80.1383 300° West 410 472 34,000 -1,100 Level Cleveland Center
Tue 08:21:48 AM 40.5294 -80.2636 301° West 405 466 31,800 -2,100 Descending Cleveland Center
Tue 08:22:48 AM 40.5964 -80.4028 302° West 405 466 29,800 -1,500 Descending Cleveland Center
Tue 08:23:48 AM 40.6467 -80.5228 299° West 405 466 28,800 -900 Descending Cleveland Center
Tue 08:24:48 AM 40.7050 -80.6544 300° West 410 472 28,000 -400 Descending Cleveland Center
Tue 08:25:48 AM 40.7717 -80.7942 302° West 410 472 28,000  Level Cleveland Center
Tue 08:26:48 AM 40.8256 -80.9206 299° West 404 465 28,000  Level Cleveland Center
Tue 08:27:48 AM 40.8833 -81.0500 301° West 404 465 28,000  Level Cleveland Center
Tue 08:28:48 AM 40.9369 -81.1822 298° West 404 465 28,000  Level Cleveland Center
Tue 08:29:48 AM 40.9944 -81.3150 300° West 409 471 28,000  Level Cleveland Center
Tue 08:30:48 AM 41.0519 -81.4478 300° West 414 476 28,000  Level Cleveland Center
Tue 08:31:48 AM 41.1072 -81.5753 300° West 414 476 28,000  Level Cleveland Center
Tue 08:32:48 AM 41.1644 -81.7056 300° West 414 476 28,000 -450 Level Cleveland Center
Tue 08:33:48 AM 41.2214 -81.8364 300° West 409 471 27,100 -950 Descending Cleveland Center
Tue 08:34:48 AM 41.2761 -81.9617 300° West 404 465 26,100 -950 Descending Cleveland Center
Tue 08:35:48 AM 41.3328 -82.0958 299° West 404 465 25,200 -1,100 Descending Cleveland Center
Tue 08:36:48 AM 41.3936 -82.2244 302° West 409 471 23,900 -1,850 Descending Cleveland Center
Tue 08:37:48 AM 41.4650 -82.3428 309° West 409 471 21,500 -2,400 Descending Cleveland Center
Tue 08:38:48 AM 41.5319 -82.4556 308° West 402 463 19,100 -2,505 Descending Cleveland Center
Tue 08:39:19 AM 41.5664 -82.5147 308° West 390 449 17,700 -2,400 Descending Cleveland Center
Tue 08:39:48 AM 41.5967 -82.5656 309° West 397 457 16,700 -2,361 Descending Cleveland Center
Tue 08:40:20 AM 41.6331 -82.6278 308° West 376 433 15,300 -2,100 Descending Cleveland Center
Tue 08:40:48 AM 41.6556 -82.6647 309° West 392 451 14,600 -2,262 Descending Cleveland Center
Tue 08:41:21 AM 41.7000 -82.7331 311° West 370 426 13,000 -2,400 Descending Cleveland Center
Tue 08:41:48 AM 41.7203 -82.7725 305° West 381 438 12,200 -984 Descending Cleveland Center
Tue 08:42:22 AM 41.7711 -82.8383 316° Northwest 362 417 12,000 -200 Descending Cleveland Center
Tue 08:42:48 AM 41.7914 -82.8642 316° Northwest 365 420 12,000  Level Cleveland Center
Tue 08:43:23 AM 41.8464 -82.9247 321° Northwest 356 410 12,000  Level Cleveland Center
Tue 08:43:48 AM 41.8647 -82.9503 314° West 360 414 12,000  Level Cleveland Center
Tue 08:44:24 AM 41.9197 -83.0139 319° Northwest 348 400 12,000  Level Cleveland Center
Tue 08:44:48 AM 41.9358 -83.0339 317° Northwest 349 402 12,000 -393 Level Cleveland Center
Tue 08:45:25 AM 41.9886 -83.0975 318° Northwest 337 388 11,600 -600 Descending Cleveland Center
Tue 08:45:48 AM 42.0050 -83.1178 317° Northwest 336 387 11,400 -590 Descending Cleveland Center
Tue 08:46:26 AM 42.0597 -83.1842 318° Northwest 354 407 11,000 -400 Descending Cleveland Center
Tue 08:46:48 AM 42.0800 -83.2047 323° Northwest 336 387 11,000 -98 Level Cleveland Center
Tue 08:47:27 AM 42.1528 -83.2217 350° North 321 369 10,900 -200 Descending Cleveland Center
Tue 08:47:48 AM 42.1672 -83.2222 358° North 314 361 10,800 -536 Descending Cleveland Center
Tue 08:48:23 AM 42.2264 -83.1911 21° North 300 345 10,400 -600 Descending Cleveland Center
Tue 08:48:48 AM 42.2475 -83.1750 29° Northeast 295 339 10,200 -1,082 Descending Cleveland Center
Tue 08:49:24 AM 42.3006 -83.1350 29° Northeast 286 329 9,300 -1,361 Descending Cleveland Center
Tue 08:50:25 AM 42.3664 -83.0844 30° Northeast 277 319 8,000 -1,033 Descending Cleveland Center
Tue 08:51:26 AM 42.4319 -83.0364 28° Northeast 250 288 7,200 -797 Descending Cleveland Center
Tue 08:52:33 AM 42.4928 -83.0189 12° North 189 217 6,300 -563 Descending Cleveland Center
Tue 08:53:34 AM 42.5019 -83.0814 281° West 166 191 6,000 -155 Descending Cleveland Center
Tue 08:54:29 AM 42.4883 -83.1314 250° West 157 181 6,000 -259 Level Cleveland Center
Tue 08:55:30 AM 42.4478 -83.1692 215° Southwest 172 198 5,500 -651 Descending Cleveland Center
Tue 08:56:38 AM 42.4011 -83.2011 207° Southwest 168 193 4,600 -794 Descending Cleveland Center

Login

Don't have an account? Register now (free) for customized features, flight alerts, and more!